sensor_id;sensor_type;location;lat;lon;timestamp;pressure;altitude;pressure_sealevel;temperature;humidity
64343;BME280;50675;53.530;-6.312;2023-06-10T00:04:20;100728.69;;;17.72;55.68
64343;BME280;50675;53.530;-6.312;2023-06-10T00:22:25;100725.25;;;17.61;55.67
64343;BME280;50675;53.530;-6.312;2023-06-10T00:40:03;100726.09;;;17.62;56.16
64343;BME280;50675;53.530;-6.312;2023-06-10T01:00:05;100719.25;;;17.35;56.07
64343;BME280;50675;53.530;-6.312;2023-06-10T01:29:36;100728.81;;;17.14;56.54
64343;BME280;50675;53.530;-6.312;2023-06-10T01:41:14;100702.13;;;17.06;56.76
64343;BME280;50675;53.530;-6.312;2023-06-10T02:12:36;100683.94;;;16.96;57.38
64343;BME280;50675;53.530;-6.312;2023-06-10T02:37:58;100696.25;;;16.70;57.66
64343;BME280;50675;53.530;-6.312;2023-06-10T02:52:06;100687.34;;;16.54;57.69
64343;BME280;50675;53.530;-6.312;2023-06-10T04:04:01;100686.28;;;17.32;58.58
64343;BME280;50675;53.530;-6.312;2023-06-10T04:11:14;100696.25;;;17.41;58.98
64343;BME280;50675;53.530;-6.312;2023-06-10T04:30:02;100694.56;;;17.45;59.04
64343;BME280;50675;53.530;-6.312;2023-06-10T04:56:52;100672.41;;;17.71;59.16
64343;BME280;50675;53.530;-6.312;2023-06-10T05:16:26;100681.03;;;17.97;59.54
64343;BME280;50675;53.530;-6.312;2023-06-10T05:28:10;100698.03;;;18.12;59.23
64343;BME280;50675;53.530;-6.312;2023-06-10T05:46:44;100712.63;;;18.72;59.36
64343;BME280;50675;53.530;-6.312;2023-06-10T06:04:49;100697.19;;;19.22;59.27
64343;BME280;50675;53.530;-6.312;2023-06-10T06:07:14;100688.97;;;19.22;59.31
64343;BME280;50675;53.530;-6.312;2023-06-10T06:09:40;100691.59;;;19.14;59.43
64343;BME280;50675;53.530;-6.312;2023-06-10T06:12:07;100694.84;;;19.30;59.16
64343;BME280;50675;53.530;-6.312;2023-06-10T06:14:37;100697.38;;;19.40;59.17
64343;BME280;50675;53.530;-6.312;2023-06-10T06:17:05;100691.59;;;19.41;59.39
64343;BME280;50675;53.530;-6.312;2023-06-10T06:19:31;100688.03;;;19.41;59.05
64343;BME280;50675;53.530;-6.312;2023-06-10T06:21:56;100696.34;;;19.36;59.25
64343;BME280;50675;53.530;-6.312;2023-06-10T06:24:22;100689.56;;;19.33;59.30
64343;BME280;50675;53.530;-6.312;2023-06-10T06:26:48;100696.47;;;19.58;59.32
64343;BME280;50675;53.530;-6.312;2023-06-10T06:29:14;100688.94;;;19.63;59.05
64343;BME280;50675;53.530;-6.312;2023-06-10T06:31:40;100687.94;;;19.59;59.24
64343;BME280;50675;53.530;-6.312;2023-06-10T06:34:05;100688.28;;;19.94;58.69
64343;BME280;50675;53.530;-6.312;2023-06-10T06:36:31;100681.53;;;20.36;58.80
64343;BME280;50675;53.530;-6.312;2023-06-10T06:38:57;100674.94;;;20.68;58.85
64343;BME280;50675;53.530;-6.312;2023-06-10T06:41:26;100668.66;;;21.07;58.83
64343;BME280;50675;53.530;-6.312;2023-06-10T06:43:54;100687.81;;;21.29;58.97
64343;BME280;50675;53.530;-6.312;2023-06-10T06:46:19;100680.16;;;21.65;59.04
64343;BME280;50675;53.530;-6.312;2023-06-10T06:48:46;100686.03;;;22.07;58.88
64343;BME280;50675;53.530;-6.312;2023-06-10T06:51:12;100686.50;;;22.26;58.45
64343;BME280;50675;53.530;-6.312;2023-06-10T06:53:39;100691.47;;;22.50;58.24
64343;BME280;50675;53.530;-6.312;2023-06-10T06:56:13;100697.28;;;22.65;57.97
64343;BME280;50675;53.530;-6.312;2023-06-10T06:58:39;100683.84;;;22.64;57.80
64343;BME280;50675;53.530;-6.312;2023-06-10T07:01:05;100690.66;;;22.58;57.50
64343;BME280;50675;53.530;-6.312;2023-06-10T07:03:31;100688.09;;;22.44;57.29
64343;BME280;50675;53.530;-6.312;2023-06-10T07:06:00;100686.34;;;22.22;57.01
64343;BME280;50675;53.530;-6.312;2023-06-10T07:08:26;100687.81;;;22.03;56.80
64343;BME280;50675;53.530;-6.312;2023-06-10T07:10:51;100693.09;;;21.91;56.91
64343;BME280;50675;53.530;-6.312;2023-06-10T07:13:17;100699.41;;;21.91;56.62
64343;BME280;50675;53.530;-6.312;2023-06-10T07:15:43;100684.03;;;21.64;56.38
64343;BME280;50675;53.530;-6.312;2023-06-10T07:18:09;100696.28;;;21.58;56.59
64343;BME280;50675;53.530;-6.312;2023-06-10T07:20:35;100697.59;;;21.52;56.43
64343;BME280;50675;53.530;-6.312;2023-06-10T07:23:01;100687.72;;;21.43;56.07
64343;BME280;50675;53.530;-6.312;2023-06-10T07:25:26;100699.00;;;21.41;56.20
64343;BME280;50675;53.530;-6.312;2023-06-10T07:27:52;100702.81;;;21.79;56.13
64343;BME280;50675;53.530;-6.312;2023-06-10T07:30:18;100691.84;;;21.97;55.94
64343;BME280;50675;53.530;-6.312;2023-06-10T07:32:44;100708.22;;;22.19;55.79
64343;BME280;50675;53.530;-6.312;2023-06-10T07:35:13;100720.84;;;22.29;55.78
64343;BME280;50675;53.530;-6.312;2023-06-10T07:37:39;100729.19;;;22.58;55.72
64343;BME280;50675;53.530;-6.312;2023-06-10T07:40:11;100722.53;;;22.67;55.33
64343;BME280;50675;53.530;-6.312;2023-06-10T07:42:40;100724.75;;;23.00;55.15
64343;BME280;50675;53.530;-6.312;2023-06-10T07:45:07;100724.78;;;23.29;55.05
64343;BME280;50675;53.530;-6.312;2023-06-10T07:47:33;100735.56;;;23.43;54.87
64343;BME280;50675;53.530;-6.312;2023-06-10T07:49:59;100737.63;;;23.63;54.94
64343;BME280;50675;53.530;-6.312;2023-06-10T07:52:26;100715.75;;;23.58;54.72
64343;BME280;50675;53.530;-6.312;2023-06-10T07:54:52;100726.16;;;23.52;54.47
64343;BME280;50675;53.530;-6.312;2023-06-10T07:57:19;100726.00;;;23.78;54.46
64343;BME280;50675;53.530;-6.312;2023-06-10T07:59:44;100725.63;;;23.59;54.04
64343;BME280;50675;53.530;-6.312;2023-06-10T08:02:10;100732.00;;;24.01;53.73
64343;BME280;50675;53.530;-6.312;2023-06-10T08:04:36;100725.97;;;24.08;53.44
64343;BME280;50675;53.530;-6.312;2023-06-10T08:07:05;100716.22;;;24.31;53.46
64343;BME280;50675;53.530;-6.312;2023-06-10T08:09:31;100719.09;;;24.34;53.42
64343;BME280;50675;53.530;-6.312;2023-06-10T08:11:59;100723.28;;;24.40;53.03
64343;BME280;50675;53.530;-6.312;2023-06-10T08:14:25;100729.25;;;24.75;52.93
64343;BME280;50675;53.530;-6.312;2023-06-10T08:16:50;100722.97;;;24.87;52.88
64343;BME280;50675;53.530;-6.312;2023-06-10T08:19:16;100714.72;;;24.99;52.11
64343;BME280;50675;53.530;-6.312;2023-06-10T08:21:42;100717.34;;;24.96;51.95
64343;BME280;50675;53.530;-6.312;2023-06-10T08:24:09;100714.88;;;24.82;52.25
64343;BME280;50675;53.530;-6.312;2023-06-10T08:26:35;100708.03;;;24.67;51.80
64343;BME280;50675;53.530;-6.312;2023-06-10T08:29:02;100721.41;;;24.65;51.72
64343;BME280;50675;53.530;-6.312;2023-06-10T08:31:27;100719.19;;;24.59;51.66
64343;BME280;50675;53.530;-6.312;2023-06-10T08:33:53;100729.72;;;24.45;51.32
64343;BME280;50675;53.530;-6.312;2023-06-10T08:36:19;100732.09;;;24.34;50.92
64343;BME280;50675;53.530;-6.312;2023-06-10T08:38:45;100730.19;;;24.05;51.01
64343;BME280;50675;53.530;-6.312;2023-06-10T08:41:13;100727.66;;;24.21;51.20
64343;BME280;50675;53.530;-6.312;2023-06-10T08:46:34;100727.69;;;23.91;50.69
64343;BME280;50675;53.530;-6.312;2023-06-10T08:49:03;100728.22;;;23.64;50.60
64343;BME280;50675;53.530;-6.312;2023-06-10T08:51:31;100732.59;;;23.86;50.57
64343;BME280;50675;53.530;-6.312;2023-06-10T08:54:04;100726.50;;;23.80;50.49
64343;BME280;50675;53.530;-6.312;2023-06-10T08:56:33;100733.28;;;23.53;50.19
64343;BME280;50675;53.530;-6.312;2023-06-10T08:59:03;100723.59;;;23.47;50.26
64343;BME280;50675;53.530;-6.312;2023-06-10T09:01:28;100730.66;;;23.19;50.27
64343;BME280;50675;53.530;-6.312;2023-06-10T09:03:55;100729.72;;;23.15;50.36
64343;BME280;50675;53.530;-6.312;2023-06-10T09:06:22;100729.88;;;23.10;50.26
64343;BME280;50675;53.530;-6.312;2023-06-10T09:08:48;100741.50;;;23.24;50.10
64343;BME280;50675;53.530;-6.312;2023-06-10T09:11:15;100745.78;;;23.13;50.08
64343;BME280;50675;53.530;-6.312;2023-06-10T09:13:40;100739.16;;;23.05;50.06
64343;BME280;50675;53.530;-6.312;2023-06-10T09:16:06;100723.59;;;23.01;49.91
64343;BME280;50675;53.530;-6.312;2023-06-10T09:18:32;100719.75;;;22.93;50.03
64343;BME280;50675;53.530;-6.312;2023-06-10T09:20:57;100729.47;;;22.99;50.08
64343;BME280;50675;53.530;-6.312;2023-06-10T09:23:23;100728.31;;;23.00;50.05
64343;BME280;50675;53.530;-6.312;2023-06-10T09:25:56;100731.81;;;23.18;50.31
64343;BME280;50675;53.530;-6.312;2023-06-10T09:28:23;100729.34;;;23.25;50.06
64343;BME280;50675;53.530;-6.312;2023-06-10T09:30:49;100739.06;;;23.31;50.05
64343;BME280;50675;53.530;-6.312;2023-06-10T09:33:15;100735.03;;;23.20;50.10
64343;BME280;50675;53.530;-6.312;2023-06-10T09:35:49;100743.50;;;23.15;50.49
64343;BME280;50675;53.530;-6.312;2023-06-10T09:38:20;100743.00;;;23.22;50.05
64343;BME280;50675;53.530;-6.312;2023-06-10T09:40:53;100731.97;;;23.22;49.98
64343;BME280;50675;53.530;-6.312;2023-06-10T09:43:20;100738.94;;;23.19;50.01
64343;BME280;50675;53.530;-6.312;2023-06-10T09:45:50;100737.94;;;23.32;49.88
64343;BME280;50675;53.530;-6.312;2023-06-10T09:48:18;100739.09;;;23.23;49.79
64343;BME280;50675;53.530;-6.312;2023-06-10T09:50:45;100736.75;;;23.33;49.85
64343;BME280;50675;53.530;-6.312;2023-06-10T09:53:11;100733.22;;;23.33;49.91
64343;BME280;50675;53.530;-6.312;2023-06-10T09:55:41;100744.72;;;23.35;49.94
64343;BME280;50675;53.530;-6.312;2023-06-10T09:58:07;100728.91;;;23.52;49.84
64343;BME280;50675;53.530;-6.312;2023-06-10T10:00:33;100736.25;;;23.40;49.68
64343;BME280;50675;53.530;-6.312;2023-06-10T10:02:59;100738.00;;;23.53;49.87
64343;BME280;50675;53.530;-6.312;2023-06-10T10:05:26;100750.28;;;23.64;49.47
64343;BME280;50675;53.530;-6.312;2023-06-10T10:07:52;100739.75;;;23.58;49.86
64343;BME280;50675;53.530;-6.312;2023-06-10T10:10:20;100732.84;;;23.51;49.53
64343;BME280;50675;53.530;-6.312;2023-06-10T10:12:46;100744.81;;;23.56;49.58
64343;BME280;50675;53.530;-6.312;2023-06-10T10:15:15;100738.75;;;23.62;49.60
64343;BME280;50675;53.530;-6.312;2023-06-10T10:17:49;100742.69;;;23.61;49.55
64343;BME280;50675;53.530;-6.312;2023-06-10T10:20:20;100742.38;;;23.54;49.47
64343;BME280;50675;53.530;-6.312;2023-06-10T10:22:49;100748.31;;;23.65;49.31
64343;BME280;50675;53.530;-6.312;2023-06-10T10:25:24;100730.63;;;23.66;49.39
64343;BME280;50675;53.530;-6.312;2023-06-10T10:27:57;100724.25;;;23.74;49.24
64343;BME280;50675;53.530;-6.312;2023-06-10T10:30:24;100727.19;;;23.69;49.29
64343;BME280;50675;53.530;-6.312;2023-06-10T10:35:23;100717.84;;;23.61;48.93
64343;BME280;50675;53.530;-6.312;2023-06-10T10:37:53;100724.00;;;23.58;49.46
64343;BME280;50675;53.530;-6.312;2023-06-10T10:40:21;100713.59;;;23.64;49.54
64343;BME280;50675;53.530;-6.312;2023-06-10T10:42:48;100723.69;;;23.60;49.07
64343;BME280;50675;53.530;-6.312;2023-06-10T10:45:14;100722.81;;;23.68;48.98
64343;BME280;50675;53.530;-6.312;2023-06-10T10:47:41;100722.38;;;23.66;49.17
64343;BME280;50675;53.530;-6.312;2023-06-10T10:50:18;100711.78;;;23.47;49.15
64343;BME280;50675;53.530;-6.312;2023-06-10T10:52:58;100714.69;;;23.42;49.05
64343;BME280;50675;53.530;-6.312;2023-06-10T10:55:25;100701.34;;;23.52;49.01
64343;BME280;50675;53.530;-6.312;2023-06-10T10:57:59;100704.34;;;23.30;48.92
64343;BME280;50675;53.530;-6.312;2023-06-10T11:02:59;100695.88;;;23.06;48.91
64343;BME280;50675;53.530;-6.312;2023-06-10T11:05:40;100691.09;;;22.86;48.96
64343;BME280;50675;53.530;-6.312;2023-06-10T11:08:08;100683.81;;;22.81;48.93
64343;BME280;50675;53.530;-6.312;2023-06-10T11:10:35;100676.06;;;22.66;49.01
64343;BME280;50675;53.530;-6.312;2023-06-10T11:13:15;100678.81;;;22.57;48.99
64343;BME280;50675;53.530;-6.312;2023-06-10T11:15:46;100682.56;;;22.61;49.09
64343;BME280;50675;53.530;-6.312;2023-06-10T11:18:14;100669.75;;;22.65;49.06
64343;BME280;50675;53.530;-6.312;2023-06-10T11:23:09;100669.72;;;22.83;49.34
64343;BME280;50675;53.530;-6.312;2023-06-10T11:25:39;100672.28;;;22.88;49.29
64343;BME280;50675;53.530;-6.312;2023-06-10T11:28:19;100675.50;;;22.98;49.28
64343;BME280;50675;53.530;-6.312;2023-06-10T11:30:45;100670.19;;;23.23;49.45
64343;BME280;50675;53.530;-6.312;2023-06-10T11:33:16;100670.56;;;23.42;49.14
64343;BME280;50675;53.530;-6.312;2023-06-10T11:35:43;100677.69;;;23.43;49.22
64343;BME280;50675;53.530;-6.312;2023-06-10T11:38:09;100680.81;;;23.71;49.33
64343;BME280;50675;53.530;-6.312;2023-06-10T11:40:36;100678.44;;;23.61;49.34
64343;BME280;50675;53.530;-6.312;2023-06-10T11:43:04;100685.34;;;23.67;49.34
64343;BME280;50675;53.530;-6.312;2023-06-10T11:45:30;100675.63;;;23.69;49.11
64343;BME280;50675;53.530;-6.312;2023-06-10T11:47:59;100689.41;;;23.69;49.10
64343;BME280;50675;53.530;-6.312;2023-06-10T11:50:32;100697.94;;;23.56;49.19
64343;BME280;50675;53.530;-6.312;2023-06-10T11:52:58;100685.16;;;23.51;49.07
64343;BME280;50675;53.530;-6.312;2023-06-10T11:55:44;100689.72;;;23.47;48.84
64343;BME280;50675;53.530;-6.312;2023-06-10T11:58:17;100685.34;;;23.46;48.86
64343;BME280;50675;53.530;-6.312;2023-06-10T12:00:46;100687.56;;;23.44;48.67
64343;BME280;50675;53.530;-6.312;2023-06-10T12:03:13;100692.72;;;23.25;48.56
64343;BME280;50675;53.530;-6.312;2023-06-10T12:05:38;100670.56;;;23.13;48.53
64343;BME280;50675;53.530;-6.312;2023-06-10T12:08:11;100677.91;;;23.00;48.38
64343;BME280;50675;53.530;-6.312;2023-06-10T12:10:42;100672.22;;;23.05;48.98
64343;BME280;50675;53.530;-6.312;2023-06-10T12:13:14;100668.63;;;23.13;48.81
64343;BME280;50675;53.530;-6.312;2023-06-10T12:15:51;100666.41;;;22.98;48.49
64343;BME280;50675;53.530;-6.312;2023-06-10T12:18:21;100657.34;;;22.97;49.07
64343;BME280;50675;53.530;-6.312;2023-06-10T12:20:47;100671.13;;;22.97;48.64
64343;BME280;50675;53.530;-6.312;2023-06-10T12:23:15;100674.72;;;22.89;48.54
64343;BME280;50675;53.530;-6.312;2023-06-10T12:29:34;100665.47;;;22.94;48.68
64343;BME280;50675;53.530;-6.312;2023-06-10T12:32:03;100677.81;;;22.88;48.49
64343;BME280;50675;53.530;-6.312;2023-06-10T12:34:36;100678.94;;;22.87;48.68
64343;BME280;50675;53.530;-6.312;2023-06-10T12:37:09;100666.78;;;22.88;48.40
64343;BME280;50675;53.530;-6.312;2023-06-10T12:39:40;100674.69;;;22.98;48.55
64343;BME280;50675;53.530;-6.312;2023-06-10T12:42:06;100676.78;;;23.01;48.67
64343;BME280;50675;53.530;-6.312;2023-06-10T12:44:39;100679.66;;;23.13;48.69
64343;BME280;50675;53.530;-6.312;2023-06-10T12:47:12;100678.41;;;23.31;48.65
64343;BME280;50675;53.530;-6.312;2023-06-10T12:49:38;100694.09;;;23.39;48.53
64343;BME280;50675;53.530;-6.312;2023-06-10T12:52:05;100685.66;;;23.44;48.83
64343;BME280;50675;53.530;-6.312;2023-06-10T12:54:31;100681.94;;;23.40;48.28
64343;BME280;50675;53.530;-6.312;2023-06-10T12:56:56;100671.38;;;23.42;48.69
64343;BME280;50675;53.530;-6.312;2023-06-10T12:59:22;100668.63;;;23.42;48.58
64343;BME280;50675;53.530;-6.312;2023-06-10T13:01:51;100663.41;;;23.49;48.69
64343;BME280;50675;53.530;-6.312;2023-06-10T13:04:17;100673.75;;;23.52;48.57
64343;BME280;50675;53.530;-6.312;2023-06-10T13:06:44;100675.81;;;23.64;48.31
64343;BME280;50675;53.530;-6.312;2023-06-10T13:09:09;100672.66;;;23.74;48.43
64343;BME280;50675;53.530;-6.312;2023-06-10T13:11:35;100676.41;;;23.70;48.26
64343;BME280;50675;53.530;-6.312;2023-06-10T13:14:03;100682.34;;;23.80;48.43
64343;BME280;50675;53.530;-6.312;2023-06-10T13:16:30;100673.06;;;23.85;48.47
64343;BME280;50675;53.530;-6.312;2023-06-10T13:18:56;100665.44;;;23.82;48.16
64343;BME280;50675;53.530;-6.312;2023-06-10T13:21:25;100676.28;;;23.87;48.39
64343;BME280;50675;53.530;-6.312;2023-06-10T13:23:51;100667.28;;;23.78;48.46
64343;BME280;50675;53.530;-6.312;2023-06-10T13:26:17;100679.78;;;23.96;48.29
64343;BME280;50675;53.530;-6.312;2023-06-10T13:28:43;100673.44;;;23.95;48.17
64343;BME280;50675;53.530;-6.312;2023-06-10T13:31:09;100677.69;;;23.93;48.29
64343;BME280;50675;53.530;-6.312;2023-06-10T13:33:35;100688.53;;;23.98;47.83
64343;BME280;50675;53.530;-6.312;2023-06-10T13:36:00;100681.75;;;24.16;48.08
64343;BME280;50675;53.530;-6.312;2023-06-10T13:38:26;100682.69;;;24.20;48.13
64343;BME280;50675;53.530;-6.312;2023-06-10T13:40:52;100667.06;;;24.24;47.96
64343;BME280;50675;53.530;-6.312;2023-06-10T13:43:17;100668.47;;;24.30;47.74
64343;BME280;50675;53.530;-6.312;2023-06-10T13:45:43;100674.53;;;24.24;47.77
64343;BME280;50675;53.530;-6.312;2023-06-10T13:48:09;100672.13;;;24.22;47.72
64343;BME280;50675;53.530;-6.312;2023-06-10T13:50:35;100674.00;;;24.30;47.68
64343;BME280;50675;53.530;-6.312;2023-06-10T13:53:00;100683.91;;;24.44;47.48
64343;BME280;50675;53.530;-6.312;2023-06-10T13:55:26;100689.22;;;24.49;47.62
64343;BME280;50675;53.530;-6.312;2023-06-10T13:57:52;100681.22;;;24.56;47.84
64343;BME280;50675;53.530;-6.312;2023-06-10T14:00:18;100683.63;;;24.57;47.34
64343;BME280;50675;53.530;-6.312;2023-06-10T14:02:43;100681.72;;;24.70;47.80
64343;BME280;50675;53.530;-6.312;2023-06-10T14:05:10;100690.00;;;24.82;47.53
64343;BME280;50675;53.530;-6.312;2023-06-10T14:07:36;100687.66;;;24.93;47.66
64343;BME280;50675;53.530;-6.312;2023-06-10T14:10:03;100677.41;;;24.93;47.53
64343;BME280;50675;53.530;-6.312;2023-06-10T14:12:29;100683.38;;;24.95;47.13
64343;BME280;50675;53.530;-6.312;2023-06-10T14:14:55;100687.09;;;25.11;47.42
64343;BME280;50675;53.530;-6.312;2023-06-10T14:17:21;100688.00;;;25.15;47.30
64343;BME280;50675;53.530;-6.312;2023-06-10T14:19:48;100681.56;;;25.11;47.14
64343;BME280;50675;53.530;-6.312;2023-06-10T14:22:14;100672.34;;;25.19;46.89
64343;BME280;50675;53.530;-6.312;2023-06-10T14:24:40;100665.06;;;25.15;46.75
64343;BME280;50675;53.530;-6.312;2023-06-10T14:27:06;100665.66;;;25.08;46.96
64343;BME280;50675;53.530;-6.312;2023-06-10T14:29:32;100668.41;;;25.20;46.49
64343;BME280;50675;53.530;-6.312;2023-06-10T14:31:59;100674.41;;;25.10;46.90
64343;BME280;50675;53.530;-6.312;2023-06-10T14:34:25;100675.91;;;25.08;46.70
64343;BME280;50675;53.530;-6.312;2023-06-10T14:36:59;100674.28;;;25.07;46.74
64343;BME280;50675;53.530;-6.312;2023-06-10T14:39:26;100668.41;;;24.96;46.07
64343;BME280;50675;53.530;-6.312;2023-06-10T14:41:51;100667.50;;;24.92;46.44
64343;BME280;50675;53.530;-6.312;2023-06-10T14:44:20;100677.63;;;24.88;46.48
64343;BME280;50675;53.530;-6.312;2023-06-10T14:46:46;100670.94;;;24.89;46.14
64343;BME280;50675;53.530;-6.312;2023-06-10T14:49:11;100665.44;;;24.89;46.06
64343;BME280;50675;53.530;-6.312;2023-06-10T14:51:37;100675.00;;;25.04;46.03
64343;BME280;50675;53.530;-6.312;2023-06-10T14:54:03;100672.34;;;25.07;45.90
64343;BME280;50675;53.530;-6.312;2023-06-10T14:56:29;100674.16;;;24.91;45.99
64343;BME280;50675;53.530;-6.312;2023-06-10T14:58:55;100665.88;;;24.91;46.04
64343;BME280;50675;53.530;-6.312;2023-06-10T15:01:21;100680.97;;;24.94;46.07
64343;BME280;50675;53.530;-6.312;2023-06-10T15:03:47;100685.81;;;25.09;45.77
64343;BME280;50675;53.530;-6.312;2023-06-10T15:06:13;100674.41;;;25.10;45.93
64343;BME280;50675;53.530;-6.312;2023-06-10T15:08:38;100683.63;;;25.02;45.83
64343;BME280;50675;53.530;-6.312;2023-06-10T15:11:04;100694.78;;;25.06;45.83
64343;BME280;50675;53.530;-6.312;2023-06-10T15:13:30;100685.03;;;25.08;45.84
64343;BME280;50675;53.530;-6.312;2023-06-10T15:15:56;100683.16;;;25.12;46.05
64343;BME280;50675;53.530;-6.312;2023-06-10T15:18:21;100674.06;;;25.24;45.81
64343;BME280;50675;53.530;-6.312;2023-06-10T15:20:47;100675.56;;;25.21;46.10
64343;BME280;50675;53.530;-6.312;2023-06-10T15:23:13;100684.56;;;25.18;45.93
64343;BME280;50675;53.530;-6.312;2023-06-10T15:25:39;100671.31;;;25.12;46.12
64343;BME280;50675;53.530;-6.312;2023-06-10T15:28:06;100671.06;;;25.17;46.03
64343;BME280;50675;53.530;-6.312;2023-06-10T15:30:32;100671.31;;;25.12;45.78
64343;BME280;50675;53.530;-6.312;2023-06-10T15:32:58;100659.19;;;25.04;46.04
64343;BME280;50675;53.530;-6.312;2023-06-10T15:35:23;100664.50;;;24.97;46.04
64343;BME280;50675;53.530;-6.312;2023-06-10T15:37:49;100665.66;;;24.96;45.79
64343;BME280;50675;53.530;-6.312;2023-06-10T15:40:15;100669.09;;;24.93;46.01
64343;BME280;50675;53.530;-6.312;2023-06-10T15:42:41;100660.31;;;24.79;46.10
64343;BME280;50675;53.530;-6.312;2023-06-10T15:45:07;100659.47;;;24.66;46.26
64343;BME280;50675;53.530;-6.312;2023-06-10T15:47:35;100665.31;;;24.53;46.38
64343;BME280;50675;53.530;-6.312;2023-06-10T15:50:01;100648.53;;;24.25;46.29
64343;BME280;50675;53.530;-6.312;2023-06-10T15:52:27;100654.28;;;24.20;46.27
64343;BME280;50675;53.530;-6.312;2023-06-10T15:54:53;100654.09;;;24.04;46.65
64343;BME280;50675;53.530;-6.312;2023-06-10T15:57:19;100657.50;;;24.01;46.80
64343;BME280;50675;53.530;-6.312;2023-06-10T15:59:45;100664.16;;;24.00;46.51
64343;BME280;50675;53.530;-6.312;2023-06-10T16:02:11;100652.34;;;24.00;46.72
64343;BME280;50675;53.530;-6.312;2023-06-10T16:04:37;100655.09;;;23.79;46.68
64343;BME280;50675;53.530;-6.312;2023-06-10T16:07:03;100645.34;;;23.61;47.03
64343;BME280;50675;53.530;-6.312;2023-06-10T16:09:29;100651.50;;;23.58;47.17
64343;BME280;50675;53.530;-6.312;2023-06-10T16:11:55;100639.09;;;23.43;46.98
64343;BME280;50675;53.530;-6.312;2023-06-10T16:14:21;100649.03;;;23.35;47.43
64343;BME280;50675;53.530;-6.312;2023-06-10T16:16:47;100651.47;;;23.37;47.56
64343;BME280;50675;53.530;-6.312;2023-06-10T16:19:13;100644.66;;;23.34;47.43
64343;BME280;50675;53.530;-6.312;2023-06-10T16:21:39;100636.38;;;23.34;47.95
64343;BME280;50675;53.530;-6.312;2023-06-10T16:24:09;100629.69;;;23.15;48.09
64343;BME280;50675;53.530;-6.312;2023-06-10T16:26:35;100626.09;;;23.23;48.31
64343;BME280;50675;53.530;-6.312;2023-06-10T16:29:00;100613.22;;;23.06;48.28
64343;BME280;50675;53.530;-6.312;2023-06-10T16:31:26;100629.38;;;23.16;48.70
64343;BME280;50675;53.530;-6.312;2023-06-10T16:33:52;100638.25;;;23.22;48.66
64343;BME280;50675;53.530;-6.312;2023-06-10T16:36:20;100639.78;;;23.10;48.85
64343;BME280;50675;53.530;-6.312;2023-06-10T16:38:46;100622.47;;;23.01;49.17
64343;BME280;50675;53.530;-6.312;2023-06-10T16:41:12;100636.81;;;23.16;49.07
64343;BME280;50675;53.530;-6.312;2023-06-10T16:43:38;100628.81;;;23.02;49.28
64343;BME280;50675;53.530;-6.312;2023-06-10T16:46:03;100637.56;;;22.95;49.31
64343;BME280;50675;53.530;-6.312;2023-06-10T16:48:30;100633.06;;;22.91;49.58
64343;BME280;50675;53.530;-6.312;2023-06-10T16:50:55;100634.22;;;22.81;49.90
64343;BME280;50675;53.530;-6.312;2023-06-10T16:53:21;100638.66;;;22.74;49.67
64343;BME280;50675;53.530;-6.312;2023-06-10T16:55:47;100634.75;;;22.75;50.13
64343;BME280;50675;53.530;-6.312;2023-06-10T16:58:13;100626.81;;;22.64;50.21
64343;BME280;50675;53.530;-6.312;2023-06-10T17:00:39;100634.41;;;22.76;50.05
64343;BME280;50675;53.530;-6.312;2023-06-10T17:03:09;100633.47;;;22.63;50.47
64343;BME280;50675;53.530;-6.312;2023-06-10T17:05:36;100639.50;;;22.57;50.77
64343;BME280;50675;53.530;-6.312;2023-06-10T17:08:02;100640.00;;;22.50;50.49
64343;BME280;50675;53.530;-6.312;2023-06-10T17:10:27;100640.16;;;22.45;50.86
64343;BME280;50675;53.530;-6.312;2023-06-10T17:12:53;100623.31;;;22.47;50.91
64343;BME280;50675;53.530;-6.312;2023-06-10T17:15:19;100631.59;;;22.47;50.97
64343;BME280;50675;53.530;-6.312;2023-06-10T17:17:44;100638.88;;;22.43;51.31
64343;BME280;50675;53.530;-6.312;2023-06-10T17:20:11;100639.66;;;22.43;51.09
64343;BME280;50675;53.530;-6.312;2023-06-10T17:22:37;100638.06;;;22.34;51.60
64343;BME280;50675;53.530;-6.312;2023-06-10T17:25:03;100632.78;;;22.29;51.58
64343;BME280;50675;53.530;-6.312;2023-06-10T17:27:29;100625.78;;;22.31;51.56
64343;BME280;50675;53.530;-6.312;2023-06-10T17:29:55;100629.50;;;22.35;51.71
64343;BME280;50675;53.530;-6.312;2023-06-10T17:32:20;100642.47;;;22.26;52.01
64343;BME280;50675;53.530;-6.312;2023-06-10T17:34:46;100642.78;;;22.33;51.97
64343;BME280;50675;53.530;-6.312;2023-06-10T17:37:12;100648.09;;;22.38;52.23
64343;BME280;50675;53.530;-6.312;2023-06-10T17:39:37;100641.47;;;22.39;52.23
64343;BME280;50675;53.530;-6.312;2023-06-10T17:42:06;100637.41;;;22.45;52.12
64343;BME280;50675;53.530;-6.312;2023-06-10T17:44:32;100640.00;;;22.50;52.38
64343;BME280;50675;53.530;-6.312;2023-06-10T17:46:58;100645.19;;;22.52;52.66
64343;BME280;50675;53.530;-6.312;2023-06-10T17:49:25;100643.41;;;22.47;52.62
64343;BME280;50675;53.530;-6.312;2023-06-10T17:51:51;100647.63;;;22.36;52.58
64343;BME280;50675;53.530;-6.312;2023-06-10T17:54:18;100651.31;;;22.49;52.87
64343;BME280;50675;53.530;-6.312;2023-06-10T17:56:44;100647.94;;;22.52;52.84
64343;BME280;50675;53.530;-6.312;2023-06-10T17:59:11;100653.59;;;22.38;53.20
64343;BME280;50675;53.530;-6.312;2023-06-10T18:01:36;100662.66;;;22.56;52.86
64343;BME280;50675;53.530;-6.312;2023-06-10T18:04:03;100657.97;;;22.56;53.14
64343;BME280;50675;53.530;-6.312;2023-06-10T18:06:32;100659.25;;;22.50;53.15
64343;BME280;50675;53.530;-6.312;2023-06-10T18:08:58;100670.91;;;22.56;52.93
64343;BME280;50675;53.530;-6.312;2023-06-10T18:11:25;100669.16;;;22.51;53.08
64343;BME280;50675;53.530;-6.312;2023-06-10T18:13:51;100661.88;;;22.38;53.20
64343;BME280;50675;53.530;-6.312;2023-06-10T18:16:22;100660.78;;;22.22;53.23
64343;BME280;50675;53.530;-6.312;2023-06-10T18:18:48;100648.16;;;22.04;53.45